Terminal Aerodrome Forecast
Issued by NWS

Home | Current Version | Previous Version | Text Only | Print | Product List | Glossary On
Versions: 1 2 3 4 5 6 7 8 9 10 11 12 13 14 15 16 17 18 19 20 21 22 23 24 25 26 27
613
FTUS43 KSGF 191420 AAB
TAFJLN
TAF AMD
KJLN 191420Z 1914/2012 17003KT 3SM BR OVC003
     FM191600 16004KT 6SM BR OVC008
     FM192100 15005KT P6SM OVC015
     FM200300 16004KT 6SM BR OVC008
     FM201000 14005KT 2SM BR OVC004=

USA.gov is the U.S. government's official web portal to all federal, state and local government web resources and services.